createdAt,value
2023-05-15T00:00:43.305Z,0.59
2023-05-15T00:01:44.336Z,0.60
2023-05-15T00:02:44.473Z,0.59
2023-05-15T00:03:44.489Z,0.60
2023-05-15T00:04:44.485Z,0.58
2023-05-15T00:05:43.475Z,0.58
2023-05-15T00:06:44.523Z,0.59
2023-05-15T00:07:44.548Z,0.60
2023-05-15T00:08:44.584Z,0.59
2023-05-15T00:09:43.652Z,0.59
2023-05-15T00:10:54.095Z,0.59
2023-05-15T00:11:44.622Z,0.59
2023-05-15T00:12:43.615Z,0.59
2023-05-15T00:13:43.646Z,0.59
2023-05-15T00:14:44.616Z,0.60
2023-05-15T00:15:44.598Z,0.58
2023-05-15T00:16:44.664Z,0.60
2023-05-15T00:17:44.619Z,0.59
2023-05-15T00:18:43.603Z,0.60
2023-05-15T00:19:44.616Z,0.59
2023-05-15T00:20:43.554Z,0.59
2023-05-15T00:21:44.584Z,0.58
2023-05-15T00:22:44.566Z,0.59
2023-05-15T00:23:43.545Z,0.59
2023-05-15T00:24:44.553Z,0.58
2023-05-15T00:25:44.522Z,0.60
2023-05-15T00:26:44.613Z,0.60
2023-05-15T00:27:43.543Z,0.59
2023-05-15T00:28:44.520Z,0.59
2023-05-15T00:29:44.517Z,0.59
2023-05-15T00:30:44.491Z,0.59
2023-05-15T00:31:44.550Z,0.59
2023-05-15T00:32:44.584Z,0.59
2023-05-15T00:33:43.472Z,0.60
2023-05-15T00:34:44.479Z,0.59
2023-05-15T00:35:44.471Z,0.59
2023-05-15T00:36:44.457Z,0.60
2023-05-15T00:37:44.466Z,0.59
2023-05-15T00:38:44.455Z,0.59
2023-05-15T00:39:44.469Z,0.59
2023-05-15T00:40:43.449Z,0.59
2023-05-15T00:41:43.436Z,0.59
2023-05-15T00:42:44.429Z,0.60
2023-05-15T00:43:44.425Z,0.60
2023-05-15T00:44:44.400Z,0.58
2023-05-15T00:45:44.442Z,0.59
2023-05-15T00:46:44.425Z,0.58
2023-05-15T00:47:43.437Z,0.57
2023-05-15T00:48:43.441Z,0.59
2023-05-15T00:49:44.471Z,0.59
2023-05-15T00:50:44.514Z,0.59
2023-05-15T00:51:43.548Z,0.59
2023-05-15T00:52:44.640Z,0.61
2023-05-15T00:53:43.654Z,0.60
2023-05-15T00:54:43.668Z,0.59
2023-05-15T00:55:44.804Z,0.60
2023-05-15T00:56:43.756Z,0.59
2023-05-15T00:57:43.772Z,0.59
2023-05-15T00:58:44.821Z,0.60
2023-05-15T00:59:44.864Z,0.59
2023-05-15T01:00:44.962Z,0.59
2023-05-15T01:01:44.953Z,0.59
2023-05-15T01:02:44.103Z,0.59
2023-05-15T01:03:44.996Z,0.59
2023-05-15T01:04:45.030Z,0.58
2023-05-15T01:05:45.072Z,0.58
2023-05-15T01:06:45.114Z,0.59
2023-05-15T01:07:44.183Z,0.58
2023-05-15T01:08:45.184Z,0.59
2023-05-15T01:09:45.212Z,0.60
2023-05-15T01:10:45.264Z,0.59
2023-05-15T01:11:44.293Z,0.58
2023-05-15T01:12:45.363Z,0.58
2023-05-15T01:13:45.372Z,0.58
2023-05-15T01:14:44.409Z,0.59
2023-05-15T01:15:44.466Z,0.57
2023-05-15T01:16:45.953Z,0.59
2023-05-15T01:17:44.569Z,0.58
2023-05-15T01:18:45.703Z,0.58
2023-05-15T01:19:45.764Z,0.60
2023-05-15T01:20:44.661Z,0.58
2023-05-15T01:21:45.705Z,0.59
2023-05-15T01:22:44.754Z,0.59
2023-05-15T01:23:45.799Z,0.58
2023-05-15T01:24:45.833Z,0.59
2023-05-15T01:25:46.040Z,0.58
2023-05-15T01:26:44.928Z,0.59
2023-05-15T01:27:44.969Z,0.58
2023-05-15T01:28:46.026Z,0.59
2023-05-15T01:29:46.053Z,0.57
2023-05-15T01:30:46.128Z,0.59
2023-05-15T01:31:45.143Z,0.58
2023-05-15T01:32:46.196Z,0.57
2023-05-15T01:33:45.258Z,0.60
2023-05-15T01:34:46.253Z,0.58
2023-05-15T01:35:45.346Z,0.58
2023-05-15T01:36:45.341Z,0.58
2023-05-15T01:37:45.399Z,0.58
2023-05-15T01:38:45.428Z,0.59
2023-05-15T01:39:46.469Z,0.59
2023-05-15T01:40:46.515Z,0.58
2023-05-15T01:41:46.561Z,0.58
2023-05-15T01:42:46.591Z,0.58
2023-05-15T01:43:45.636Z,0.59
2023-05-15T01:44:46.652Z,0.58
2023-05-15T01:45:46.687Z,0.57
2023-05-15T01:46:46.738Z,0.59
2023-05-15T01:47:46.811Z,0.58
2023-05-15T01:48:46.802Z,0.58
2023-05-15T01:49:46.857Z,0.58
2023-05-15T01:50:45.886Z,0.59
2023-05-15T01:51:45.944Z,0.58
2023-05-15T01:52:45.979Z,0.57
2023-05-15T01:53:47.000Z,0.58
2023-05-15T01:54:47.037Z,0.60
2023-05-15T01:55:46.087Z,0.59
2023-05-15T01:56:47.159Z,0.58
2023-05-15T01:57:47.181Z,0.57
2023-05-15T01:58:47.225Z,0.59
2023-05-15T01:59:47.274Z,0.59
2023-05-15T02:00:46.282Z,0.57
2023-05-15T02:01:47.392Z,0.58
2023-05-15T02:02:47.479Z,0.58
2023-05-15T02:03:46.531Z,0.58
2023-05-15T02:04:47.433Z,0.59
2023-05-15T02:05:47.514Z,0.57
2023-05-15T02:06:46.516Z,0.58
2023-05-15T02:07:46.576Z,0.58
2023-05-15T02:08:46.630Z,0.58
2023-05-15T02:09:46.646Z,0.59
2023-05-15T02:10:46.679Z,0.57
2023-05-15T02:11:47.737Z,0.58
2023-05-15T02:12:47.769Z,0.58
2023-05-15T02:13:46.884Z,0.58
2023-05-15T02:14:46.877Z,0.59
2023-05-15T02:15:48.065Z,0.58
2023-05-15T02:16:47.047Z,0.57
2023-05-15T02:17:47.039Z,0.57
2023-05-15T02:18:47.049Z,0.58
2023-05-15T02:19:48.074Z,0.57
2023-05-15T02:20:48.124Z,0.59
2023-05-15T02:21:48.190Z,0.58
2023-05-15T02:22:48.213Z,0.57
2023-05-15T02:23:47.259Z,0.57
2023-05-15T02:24:48.315Z,0.57
2023-05-15T02:25:48.347Z,0.59
2023-05-15T02:26:47.430Z,0.59
2023-05-15T02:27:48.460Z,0.57
2023-05-15T02:28:48.489Z,0.58
2023-05-15T02:29:47.566Z,0.59
2023-05-15T02:30:48.598Z,0.57
2023-05-15T02:31:48.700Z,0.57
2023-05-15T02:32:47.722Z,0.57
2023-05-15T02:33:47.736Z,0.57
2023-05-15T02:34:48.661Z,0.58
2023-05-15T02:35:48.826Z,0.57
2023-05-15T02:36:48.875Z,0.59
2023-05-15T02:37:47.961Z,0.59
2023-05-15T02:38:47.994Z,0.57
2023-05-15T02:39:48.035Z,0.57
2023-05-15T02:40:48.069Z,0.58
2023-05-15T02:41:48.119Z,0.57
2023-05-15T02:42:48.162Z,0.58
2023-05-15T02:43:49.205Z,0.58
2023-05-15T02:44:49.259Z,0.57
2023-05-15T02:45:49.291Z,0.58
2023-05-15T02:46:48.323Z,0.56
2023-05-15T02:47:48.472Z,0.58
2023-05-15T02:48:49.414Z,0.56
2023-05-15T02:49:49.440Z,0.58
2023-05-15T02:50:49.478Z,0.57
2023-05-15T02:51:49.777Z,0.58
2023-05-15T02:52:49.595Z,0.58
2023-05-15T02:53:49.637Z,0.58
2023-05-15T02:54:49.668Z,0.57
2023-05-15T02:55:48.733Z,0.57
2023-05-15T02:56:49.746Z,0.56
2023-05-15T02:57:49.793Z,0.57
2023-05-15T02:58:49.835Z,0.58
2023-05-15T02:59:49.875Z,0.58
2023-05-15T03:00:49.979Z,0.57
2023-05-15T03:01:49.964Z,0.57
2023-05-15T03:02:49.050Z,0.57
2023-05-15T03:03:49.206Z,0.56
2023-05-15T03:04:49.147Z,0.57
2023-05-15T03:05:49.175Z,0.56
2023-05-15T03:06:50.250Z,0.57
2023-05-15T03:07:50.266Z,0.58
2023-05-15T03:08:49.338Z,0.58
2023-05-15T03:09:49.450Z,0.57
2023-05-15T03:10:50.397Z,0.57
2023-05-15T03:11:49.469Z,0.57
2023-05-15T03:12:49.494Z,0.57
2023-05-15T03:13:50.546Z,0.58
2023-05-15T03:14:50.589Z,0.58
2023-05-15T03:15:49.634Z,0.58
2023-05-15T03:16:50.738Z,0.57
2023-05-15T03:17:49.764Z,0.58
2023-05-15T03:18:50.838Z,0.57
2023-05-15T03:19:49.878Z,0.58
2023-05-15T03:20:50.894Z,0.56
2023-05-15T03:21:50.945Z,0.58
2023-05-15T03:22:49.988Z,0.57
2023-05-15T03:23:51.041Z,0.58
2023-05-15T03:24:51.111Z,0.56
2023-05-15T03:25:50.154Z,0.56
2023-05-15T03:26:51.190Z,0.56
2023-05-15T03:27:51.199Z,0.56
2023-05-15T03:28:51.265Z,0.57
2023-05-15T03:29:50.312Z,0.56
2023-05-15T03:30:51.360Z,0.58
2023-05-15T03:31:51.493Z,0.57
2023-05-15T03:32:51.568Z,0.56
2023-05-15T03:33:51.582Z,0.58
2023-05-15T03:34:51.553Z,0.56
2023-05-15T03:35:51.598Z,0.56
2023-05-15T03:36:51.698Z,0.58
2023-05-15T03:37:51.698Z,0.58
2023-05-15T03:38:51.744Z,0.57
2023-05-15T03:39:50.782Z,0.58
2023-05-15T03:40:51.209Z,0.57
2023-05-15T03:41:51.896Z,0.57
2023-05-15T03:42:50.925Z,0.58
2023-05-15T03:43:51.992Z,0.56
2023-05-15T03:44:51.034Z,0.56
2023-05-15T03:45:52.090Z,0.56
2023-05-15T03:46:52.186Z,0.57
2023-05-15T03:47:51.253Z,0.57
2023-05-15T03:48:52.222Z,0.56
2023-05-15T03:49:52.274Z,0.57
2023-05-15T03:50:52.310Z,0.57
2023-05-15T03:51:51.358Z,0.56
2023-05-15T03:52:52.414Z,0.57
2023-05-15T03:53:52.493Z,0.57
2023-05-15T03:54:51.526Z,0.57
2023-05-15T03:55:51.561Z,0.58
2023-05-15T03:56:51.695Z,0.58
2023-05-15T03:57:51.672Z,0.57
2023-05-15T03:58:51.735Z,0.58
2023-05-15T03:59:51.784Z,0.58
2023-05-15T04:00:51.867Z,0.57
2023-05-15T04:02:03.533Z,0.57
2023-05-15T04:02:52.916Z,0.57
2023-05-15T04:03:52.882Z,0.57
2023-05-15T04:04:51.937Z,0.57
2023-05-15T04:05:52.896Z,0.57
2023-05-15T04:06:51.862Z,0.58
2023-05-15T04:07:52.853Z,0.59
2023-05-15T04:08:52.833Z,0.57
2023-05-15T04:09:51.839Z,0.57
2023-05-15T04:10:52.835Z,0.58
2023-05-15T04:11:51.813Z,0.56
2023-05-15T04:12:52.834Z,0.57
2023-05-15T04:13:51.820Z,0.58
2023-05-15T04:14:51.810Z,0.57
2023-05-15T04:15:51.791Z,0.58
2023-05-15T04:16:51.824Z,0.58
2023-05-15T04:17:51.816Z,0.57
2023-05-15T04:18:51.810Z,0.56
2023-05-15T04:19:52.694Z,0.57
2023-05-15T04:20:52.768Z,0.58
2023-05-15T04:21:51.772Z,0.57
2023-05-15T04:22:51.738Z,0.57
2023-05-15T04:23:51.740Z,0.56
2023-05-15T04:24:51.732Z,0.56
2023-05-15T04:25:52.742Z,0.56
2023-05-15T04:26:52.782Z,0.56
2023-05-15T04:27:52.730Z,0.56
2023-05-15T04:29:03.526Z,0.55
2023-05-15T04:29:52.706Z,0.55
2023-05-15T04:30:51.703Z,0.56
2023-05-15T04:31:51.700Z,0.56
2023-05-15T04:32:52.730Z,0.57
2023-05-15T04:33:52.692Z,0.57
2023-05-15T04:34:52.692Z,0.57
2023-05-15T04:35:52.658Z,0.56
2023-05-15T04:36:51.663Z,0.57
2023-05-15T04:37:52.668Z,0.57
2023-05-15T04:38:52.680Z,0.58
2023-05-15T04:39:51.627Z,0.57
2023-05-15T04:40:52.617Z,0.56
2023-05-15T04:41:51.686Z,0.58
2023-05-15T04:42:52.621Z,0.56
2023-05-15T04:43:52.610Z,0.56
2023-05-15T04:44:52.620Z,0.57
2023-05-15T04:45:51.638Z,0.57
2023-05-15T04:46:52.586Z,0.55
2023-05-15T04:47:52.604Z,0.56
2023-05-15T04:48:51.564Z,0.56
2023-05-15T04:49:52.572Z,0.56
2023-05-15T04:50:52.559Z,0.57
2023-05-15T04:51:51.554Z,0.57
2023-05-15T04:52:52.543Z,0.57
2023-05-15T04:53:51.541Z,0.56
2023-05-15T04:54:52.526Z,0.58
2023-05-15T04:55:51.560Z,0.56
2023-05-15T04:56:52.636Z,0.55
2023-05-15T04:57:51.691Z,0.56
2023-05-15T04:58:52.737Z,0.56
2023-05-15T04:59:52.793Z,0.56
2023-05-15T05:00:51.849Z,0.56
2023-05-15T05:01:51.916Z,0.56
2023-05-15T05:02:51.994Z,0.56
2023-05-15T05:03:52.071Z,0.55
2023-05-15T05:04:53.031Z,0.57
2023-05-15T05:05:53.108Z,0.57
2023-05-15T05:06:52.151Z,0.57
2023-05-15T05:07:52.192Z,0.57
2023-05-15T05:08:52.289Z,0.57
2023-05-15T05:09:53.305Z,0.58
2023-05-15T05:10:53.346Z,0.57
2023-05-15T05:11:52.431Z,0.57
2023-05-15T05:12:52.455Z,0.57
2023-05-15T05:13:52.516Z,0.56
2023-05-15T05:14:52.564Z,0.56
2023-05-15T05:15:52.678Z,0.56
2023-05-15T05:16:53.679Z,0.57
2023-05-15T05:17:52.761Z,0.57
2023-05-15T05:18:52.847Z,0.57
2023-05-15T05:19:52.818Z,0.57
2023-05-15T05:20:53.895Z,0.56
2023-05-15T05:21:53.939Z,0.57
2023-05-15T05:22:53.970Z,0.57
2023-05-15T05:23:54.064Z,0.57
2023-05-15T05:24:54.076Z,0.56
2023-05-15T05:25:53.151Z,0.57
2023-05-15T05:26:53.177Z,0.57
2023-05-15T05:27:53.248Z,0.56
2023-05-15T05:28:53.300Z,0.57
2023-05-15T05:29:54.347Z,0.57
2023-05-15T05:30:54.447Z,0.63
2023-05-15T05:31:53.497Z,0.62
2023-05-15T05:32:54.527Z,0.61
2023-05-15T05:33:54.744Z,0.63
2023-05-15T05:34:53.578Z,0.66
2023-05-15T05:35:53.627Z,0.67
2023-05-15T05:36:53.659Z,0.67
2023-05-15T05:37:54.687Z,0.67
2023-05-15T05:38:53.753Z,0.69
2023-05-15T05:39:54.776Z,0.70
2023-05-15T05:40:54.896Z,0.74
2023-05-15T05:41:53.888Z,0.79
2023-05-15T05:42:53.971Z,0.78
2023-05-15T05:43:55.289Z,0.79
2023-05-15T05:44:55.019Z,0.86
2023-05-15T05:45:55.207Z,0.88
2023-05-15T05:46:54.467Z,0.98
2023-05-15T05:47:55.069Z,1.08
2023-05-15T05:48:54.408Z,1.13
2023-05-15T05:49:55.377Z,1.11
2023-05-15T05:50:54.153Z,1.12
2023-05-15T05:51:55.094Z,1.21
2023-05-15T05:52:55.145Z,1.22
2023-05-15T05:53:54.114Z,1.23
2023-05-15T05:54:55.149Z,1.32
2023-05-15T05:55:55.105Z,1.47
2023-05-15T05:56:54.172Z,1.63
2023-05-15T05:57:54.130Z,1.58
2023-05-15T05:58:55.210Z,1.62
2023-05-15T05:59:54.277Z,1.61
2023-05-15T06:00:54.322Z,1.65
2023-05-15T06:01:55.467Z,1.70
2023-05-15T06:02:55.528Z,1.75
2023-05-15T06:03:54.819Z,1.82
2023-05-15T06:04:55.481Z,1.77
2023-05-15T06:05:54.544Z,1.68
2023-05-15T06:06:55.585Z,1.18
2023-05-15T06:07:55.680Z,0.95
2023-05-15T06:08:56.490Z,0.79
2023-05-15T06:09:56.091Z,0.70
2023-05-15T06:10:54.870Z,0.60
2023-05-15T06:11:54.793Z,0.53
2023-05-15T06:12:55.845Z,0.60
2023-05-15T06:13:54.987Z,0.72
2023-05-15T06:14:55.745Z,0.65
2023-05-15T06:15:55.759Z,0.51
2023-05-15T06:16:55.801Z,0.49
2023-05-15T06:17:54.932Z,0.55
2023-05-15T06:18:55.791Z,0.50
2023-05-15T06:19:57.327Z,0.50
2023-05-15T06:20:56.158Z,0.52
2023-05-15T06:21:56.606Z,0.52
2023-05-15T06:22:55.256Z,0.56
2023-05-15T06:23:56.177Z,0.76
2023-05-15T06:24:56.138Z,0.93
2023-05-15T06:25:55.096Z,1.01
2023-05-15T06:26:56.384Z,1.11
2023-05-15T06:27:56.133Z,1.17
2023-05-15T06:28:55.140Z,1.22
2023-05-15T06:29:56.197Z,1.28
2023-05-15T06:30:56.286Z,1.36
2023-05-15T06:31:56.335Z,1.42
2023-05-15T06:32:56.517Z,1.54
2023-05-15T06:33:56.519Z,1.66
2023-05-15T06:34:56.463Z,1.69
2023-05-15T06:35:56.495Z,1.75
2023-05-15T06:36:55.564Z,1.81
2023-05-15T06:37:57.819Z,1.86
2023-05-15T06:38:56.814Z,1.93
2023-05-15T06:39:55.526Z,2.14
2023-05-15T06:40:56.591Z,2.18
2023-05-15T06:41:55.519Z,2.23
2023-05-15T06:42:56.471Z,2.26
2023-05-15T06:43:55.828Z,2.33
2023-05-15T06:44:56.464Z,2.36
2023-05-15T06:45:55.499Z,2.46
2023-05-15T06:46:55.545Z,2.50
2023-05-15T06:47:55.754Z,2.58
2023-05-15T06:48:56.494Z,2.69
2023-05-15T06:49:56.477Z,2.73
2023-05-15T06:50:56.403Z,2.82
2023-05-15T06:51:56.465Z,3.12
2023-05-15T06:52:56.539Z,3.54
2023-05-15T06:53:56.411Z,3.54
2023-05-15T06:54:56.106Z,3.73
2023-05-15T06:55:56.764Z,3.81
2023-05-15T09:52:08.514Z,0.50
2023-05-15T09:53:09.240Z,0.50
2023-05-15T09:54:09.230Z,0.50
2023-05-15T09:55:09.227Z,0.50
2023-05-15T09:56:08.234Z,0.50
2023-05-15T09:57:08.241Z,0.40
2023-05-15T09:58:08.215Z,0.35
2023-05-15T09:59:11.232Z,0.34
2023-05-15T10:00:08.205Z,0.34
2023-05-15T10:01:09.212Z,0.34
2023-05-15T10:02:08.323Z,0.34
2023-05-15T10:03:09.232Z,0.34
2023-05-15T10:04:09.170Z,0.34
2023-05-15T10:05:08.173Z,0.34
2023-05-15T10:06:09.531Z,0.34
2023-05-15T10:07:09.283Z,0.34
2023-05-15T10:08:08.174Z,0.34
2023-05-15T10:09:08.139Z,0.34
2023-05-15T10:10:08.238Z,0.34
2023-05-15T10:11:09.142Z,0.34
2023-05-15T10:12:09.103Z,0.34
2023-05-15T10:13:09.110Z,0.34
2023-05-15T10:14:09.224Z,0.38
2023-05-15T10:15:09.080Z,0.47
2023-05-15T10:16:08.439Z,0.50
2023-05-15T10:17:08.079Z,0.52
2023-05-15T10:18:08.090Z,0.50
2023-05-15T10:19:08.407Z,0.50
2023-05-15T10:20:08.063Z,0.51
2023-05-15T10:21:08.068Z,0.51
2023-05-15T10:22:08.055Z,0.50
2023-05-15T10:23:09.034Z,0.51
2023-05-15T10:24:08.095Z,0.51
2023-05-15T10:25:09.025Z,0.50
2023-05-15T10:26:09.045Z,0.51
2023-05-15T10:27:08.004Z,0.50
2023-05-15T10:28:07.995Z,0.50
2023-05-15T10:29:08.000Z,0.50
2023-05-15T10:30:08.996Z,0.52
2023-05-15T10:31:09.088Z,0.51
2023-05-15T10:32:09.016Z,0.51
2023-05-15T10:33:08.143Z,0.52
2023-05-15T10:34:08.970Z,0.50
2023-05-15T10:35:08.954Z,0.51
2023-05-15T10:36:08.989Z,0.50
2023-05-15T10:37:08.970Z,0.51
2023-05-15T10:38:07.924Z,0.51
2023-05-15T10:39:07.930Z,0.51
2023-05-15T10:40:07.934Z,0.50
2023-05-15T10:41:16.533Z,0.47
2023-05-15T10:42:08.941Z,0.48
2023-05-15T10:43:08.917Z,0.48
2023-05-15T10:44:08.922Z,0.47
2023-05-15T10:45:08.899Z,0.45
2023-05-15T10:46:07.876Z,0.47
2023-05-15T10:47:08.989Z,0.51
2023-05-15T10:48:08.888Z,0.54
2023-05-15T10:49:08.864Z,0.55
2023-05-15T10:50:08.949Z,0.58
2023-05-15T10:51:09.471Z,0.55
2023-05-15T10:52:08.836Z,0.57
2023-05-15T10:53:08.844Z,0.47
2023-05-15T10:54:07.835Z,0.51
2023-05-15T10:55:08.830Z,0.41
2023-05-15T10:56:07.875Z,0.49
2023-05-15T10:57:08.812Z,0.53
2023-05-15T10:58:07.809Z,0.63
2023-05-15T10:59:08.923Z,0.55
2023-05-15T11:00:07.797Z,0.51
2023-05-15T11:01:07.810Z,0.56
2023-05-15T11:02:07.871Z,0.59
2023-05-15T11:03:08.924Z,0.59
2023-05-15T11:04:08.810Z,0.50
2023-05-15T11:05:07.775Z,0.52
2023-05-15T11:06:07.765Z,0.55
2023-05-15T11:07:07.764Z,0.57
2023-05-15T11:08:08.793Z,0.56
2023-05-15T11:09:07.784Z,0.58
2023-05-15T11:10:07.758Z,0.61
2023-05-15T11:11:08.746Z,0.61
2023-05-15T11:12:08.756Z,0.62
2023-05-15T11:13:08.734Z,0.61
2023-05-15T11:14:07.703Z,0.63
2023-05-15T11:15:08.719Z,0.64
2023-05-15T11:16:07.702Z,0.68
2023-05-15T11:17:08.013Z,0.68
2023-05-15T11:18:08.713Z,0.71
2023-05-15T11:19:08.717Z,0.73
2023-05-15T11:20:08.671Z,0.77
2023-05-15T11:21:07.667Z,0.77
2023-05-15T11:22:07.661Z,0.80
2023-05-15T11:23:08.657Z,0.81
2023-05-15T11:24:07.645Z,0.93
2023-05-15T11:25:08.654Z,0.94
2023-05-15T11:26:08.651Z,0.92
2023-05-15T11:27:08.626Z,0.95
2023-05-15T11:28:08.738Z,0.95
2023-05-15T11:29:08.600Z,0.96
2023-05-15T11:30:07.594Z,0.98
2023-05-15T11:31:08.668Z,1.01
2023-05-15T11:32:07.603Z,1.02
2023-05-15T11:33:07.615Z,1.03
2023-05-15T11:34:08.570Z,1.06
2023-05-15T11:35:08.562Z,1.09
2023-05-15T11:36:07.587Z,1.10
2023-05-15T11:37:08.564Z,1.10
2023-05-15T11:38:08.542Z,1.15
2023-05-15T11:39:07.534Z,1.16
2023-05-15T11:40:08.544Z,1.15
2023-05-15T11:41:07.526Z,1.16
2023-05-15T11:42:08.526Z,1.15
2023-05-15T11:43:08.517Z,1.15
2023-05-15T11:44:08.582Z,1.11
2023-05-15T11:45:07.504Z,1.15
2023-05-15T11:46:08.660Z,1.13
2023-05-15T11:47:07.494Z,1.12
2023-05-15T11:48:08.567Z,1.13
2023-05-15T11:49:08.486Z,1.10
2023-05-15T11:50:08.462Z,1.14
2023-05-15T11:51:08.457Z,1.12
2023-05-15T11:52:08.455Z,1.12
2023-05-15T11:53:08.499Z,1.10
2023-05-15T11:54:08.573Z,1.12
2023-05-15T11:55:08.609Z,1.12
2023-05-15T11:56:08.685Z,1.08
2023-05-15T11:57:07.712Z,1.10
2023-05-15T11:58:07.766Z,1.08
2023-05-15T11:59:08.827Z,1.07
2023-05-15T12:00:08.936Z,1.09
2023-05-15T12:01:09.738Z,1.08
2023-05-15T12:02:07.952Z,1.06
2023-05-15T12:03:09.057Z,1.06
2023-05-15T12:04:08.071Z,1.09
2023-05-15T12:05:08.975Z,1.04
2023-05-15T12:06:07.932Z,1.04
2023-05-15T12:07:08.923Z,1.05
2023-05-15T12:08:08.916Z,1.02
2023-05-15T12:09:08.901Z,1.02
2023-05-15T12:10:08.927Z,1.00
2023-05-15T12:11:07.884Z,1.01
2023-05-15T12:12:08.886Z,0.99
2023-05-15T12:13:08.871Z,1.01
2023-05-15T12:14:07.881Z,0.98
2023-05-15T12:15:07.863Z,1.00
2023-05-15T12:16:07.947Z,1.01
2023-05-15T12:17:07.878Z,0.99
2023-05-15T12:18:07.871Z,0.99
2023-05-15T12:19:08.861Z,1.01
2023-05-15T12:20:08.940Z,1.04
2023-05-15T12:21:08.823Z,1.03
2023-05-15T12:22:07.841Z,1.01
2023-05-15T12:23:08.807Z,1.03
2023-05-15T12:24:08.555Z,0.93
2023-05-15T12:25:08.844Z,0.62
2023-05-15T12:26:07.777Z,0.53
2023-05-15T12:27:08.822Z,0.50
2023-05-15T12:28:08.773Z,0.51
2023-05-15T12:29:08.784Z,0.51
2023-05-15T12:30:08.774Z,0.51
2023-05-15T12:31:07.984Z,0.50
2023-05-15T12:32:08.004Z,0.52
2023-05-15T12:33:08.784Z,0.49
2023-05-15T12:34:08.831Z,0.53
2023-05-15T12:35:08.844Z,0.51
2023-05-15T12:36:08.922Z,0.52
2023-05-15T12:37:09.066Z,0.52
2023-05-15T12:38:09.003Z,0.55
2023-05-15T12:39:08.140Z,0.56
2023-05-15T12:40:08.085Z,0.51
2023-05-15T12:41:08.110Z,0.52
2023-05-15T12:42:09.136Z,0.50
2023-05-15T12:43:08.177Z,0.52
2023-05-15T12:44:09.194Z,0.52
2023-05-15T12:45:08.280Z,0.50
2023-05-15T12:46:09.270Z,0.51
2023-05-15T12:47:08.285Z,0.50
2023-05-15T12:48:08.399Z,0.52
2023-05-15T12:49:09.338Z,0.50
2023-05-15T12:50:09.365Z,0.51
2023-05-15T12:51:08.459Z,0.52
2023-05-15T12:52:09.447Z,0.51
2023-05-15T12:53:09.489Z,0.52
2023-05-15T12:54:09.480Z,0.50
2023-05-15T12:55:08.534Z,0.50
2023-05-15T12:56:09.584Z,0.54
2023-05-15T12:57:09.621Z,0.52
2023-05-15T12:58:08.681Z,0.50
2023-05-15T12:59:09.663Z,0.51
2023-05-15T13:00:09.694Z,0.52
2023-05-15T13:01:08.923Z,0.52
2023-05-15T13:02:09.864Z,0.51
2023-05-15T13:03:09.918Z,0.50
2023-05-15T13:04:09.864Z,0.51
2023-05-15T13:05:08.865Z,0.50
2023-05-15T13:06:09.905Z,0.52
2023-05-15T13:07:08.937Z,0.54
2023-05-15T13:08:08.993Z,0.53
2023-05-15T13:09:09.021Z,0.52
2023-05-15T13:10:10.069Z,0.53
2023-05-15T13:11:09.121Z,0.50
2023-05-15T13:12:09.133Z,0.52
2023-05-15T13:13:09.190Z,0.52
2023-05-15T13:14:10.221Z,0.51
2023-05-15T13:15:10.260Z,0.55
2023-05-15T13:16:10.253Z,0.56
2023-05-15T13:17:10.339Z,0.54
2023-05-15T13:18:10.447Z,0.55
2023-05-15T13:19:09.476Z,0.50
2023-05-15T13:20:10.486Z,0.53
2023-05-15T13:21:10.491Z,0.54
2023-05-15T13:22:10.534Z,0.56
2023-05-15T13:23:09.577Z,0.55
2023-05-15T13:24:09.635Z,0.56
2023-05-15T13:25:10.646Z,0.55
2023-05-15T13:26:10.713Z,0.54
2023-05-15T13:27:09.772Z,0.52
2023-05-15T13:28:09.802Z,0.55
2023-05-15T13:29:09.821Z,0.56
2023-05-15T13:30:09.852Z,0.57
2023-05-15T13:31:10.937Z,0.57
2023-05-15T13:32:10.923Z,0.60
2023-05-15T13:33:11.152Z,0.59
2023-05-15T13:34:09.994Z,0.56
2023-05-15T13:35:11.056Z,0.57
2023-05-15T13:36:10.127Z,0.55
2023-05-15T13:37:11.135Z,0.54
2023-05-15T13:38:11.856Z,0.54
2023-05-15T13:39:11.209Z,0.53
2023-05-15T13:40:11.279Z,0.51
2023-05-15T13:41:10.337Z,0.53
2023-05-15T13:42:10.347Z,0.52
2023-05-15T13:43:10.428Z,0.50
2023-05-15T13:44:11.474Z,0.54
2023-05-15T13:45:10.532Z,0.52
2023-05-15T13:46:10.609Z,0.50
2023-05-15T13:47:10.754Z,0.50
2023-05-15T13:48:11.860Z,0.53
2023-05-15T13:49:11.808Z,0.51
2023-05-15T13:50:11.846Z,0.50
2023-05-15T13:51:10.907Z,0.51
2023-05-15T13:52:12.005Z,0.50
2023-05-15T13:53:12.053Z,0.52
2023-05-15T13:54:11.112Z,0.50
2023-05-15T13:55:12.167Z,0.52
2023-05-15T13:56:12.284Z,0.51
2023-05-15T13:57:12.326Z,0.53
2023-05-15T13:58:12.372Z,0.54
2023-05-15T13:59:12.407Z,0.53
2023-05-15T14:00:11.480Z,0.52
2023-05-15T14:01:11.616Z,0.53
2023-05-15T14:02:12.636Z,0.53
2023-05-15T14:03:15.072Z,0.50
2023-05-15T14:04:12.724Z,0.54
2023-05-15T14:05:12.745Z,0.54
2023-05-15T14:06:12.663Z,0.56
2023-05-15T14:07:11.654Z,0.53
2023-05-15T14:08:11.753Z,0.54
2023-05-15T14:09:12.628Z,0.54
2023-05-15T14:10:11.684Z,0.54
2023-05-15T14:11:12.654Z,0.54
2023-05-15T14:12:12.634Z,0.53
2023-05-15T14:13:12.614Z,0.53
2023-05-15T14:14:12.605Z,0.52
2023-05-15T14:15:12.592Z,0.53
2023-05-15T14:16:12.629Z,0.53
2023-05-15T14:17:12.575Z,0.62
2023-05-15T14:18:11.633Z,0.64
2023-05-15T14:19:12.604Z,0.68
2023-05-15T14:20:11.702Z,0.75
2023-05-15T14:21:11.675Z,0.82
2023-05-15T14:22:11.554Z,0.80
2023-05-15T14:23:11.557Z,0.82
2023-05-15T14:24:11.554Z,0.82
2023-05-15T14:25:12.536Z,0.86
2023-05-15T14:26:11.525Z,0.87
2023-05-15T14:27:12.588Z,0.90
2023-05-15T14:28:12.622Z,0.89
2023-05-15T14:29:12.637Z,0.91
2023-05-15T14:30:12.685Z,0.93
2023-05-15T14:31:11.701Z,0.97
2023-05-15T14:32:11.813Z,0.97
2023-05-15T14:33:11.847Z,0.97
2023-05-15T14:34:12.816Z,0.97
2023-05-15T14:35:11.850Z,0.97
2023-05-15T14:36:12.852Z,0.99
2023-05-15T14:37:11.896Z,1.00
2023-05-15T14:38:11.903Z,1.01
2023-05-15T14:39:12.965Z,0.99
2023-05-15T14:40:12.008Z,1.02
2023-05-15T14:41:11.972Z,1.03
2023-05-15T14:42:12.988Z,1.05
2023-05-15T14:43:12.015Z,1.07
2023-05-15T14:44:12.030Z,1.09
2023-05-15T14:45:12.027Z,1.13
2023-05-15T14:46:13.084Z,1.15
2023-05-15T14:47:12.079Z,1.16
2023-05-15T14:48:12.131Z,1.15
2023-05-15T14:49:13.097Z,1.15
2023-05-15T14:50:12.096Z,1.16
2023-05-15T14:51:13.640Z,1.20
2023-05-15T14:52:12.143Z,1.19
2023-05-15T14:53:14.564Z,1.20
2023-05-15T14:54:12.226Z,1.22
2023-05-15T14:55:12.251Z,1.22
2023-05-15T14:56:13.250Z,1.20
2023-05-15T14:57:13.266Z,1.22
2023-05-15T14:58:13.260Z,1.22
2023-05-15T14:59:13.273Z,1.23
2023-05-15T15:00:12.276Z,1.27
2023-05-15T15:01:13.309Z,1.26
2023-05-15T15:02:13.290Z,1.27
2023-05-15T15:03:13.404Z,1.28
2023-05-15T15:04:13.384Z,1.30
2023-05-15T15:05:13.340Z,1.28
2023-05-15T15:06:13.353Z,1.30
2023-05-15T15:07:12.344Z,1.31
2023-05-15T15:08:13.381Z,1.31
2023-05-15T15:09:13.370Z,1.33
2023-05-15T15:10:13.369Z,1.31
2023-05-15T15:11:12.398Z,1.31
2023-05-15T15:12:12.392Z,1.32
2023-05-15T15:13:12.413Z,1.32
2023-05-15T15:14:13.404Z,1.32
2023-05-15T15:15:13.415Z,1.33
2023-05-15T15:16:13.476Z,1.34
2023-05-15T15:17:13.442Z,1.32
2023-05-15T15:18:12.533Z,1.32
2023-05-15T15:19:12.505Z,1.32
2023-05-15T15:20:12.481Z,1.33
2023-05-15T15:21:12.507Z,1.31
2023-05-15T15:22:12.547Z,1.36
2023-05-15T15:23:13.579Z,1.30
2023-05-15T15:24:13.578Z,1.31
2023-05-15T15:25:13.587Z,1.32
2023-05-15T15:26:13.619Z,1.36
2023-05-15T15:27:12.660Z,1.33
2023-05-15T15:28:12.670Z,1.35
2023-05-15T15:29:12.697Z,1.35
2023-05-15T15:30:13.717Z,1.33
2023-05-15T15:31:27.296Z,1.37
2023-05-15T15:32:14.314Z,1.38
2023-05-15T15:33:14.200Z,1.39
2023-05-15T15:34:14.207Z,1.39
2023-05-15T15:35:14.550Z,1.39
2023-05-15T15:36:13.067Z,1.39
2023-05-15T15:37:14.119Z,1.38
2023-05-15T15:38:14.111Z,1.38
2023-05-15T15:39:13.308Z,1.39
2023-05-15T15:40:14.170Z,1.38
2023-05-15T15:41:13.176Z,1.35
2023-05-15T15:42:14.227Z,1.37
2023-05-15T15:43:14.265Z,1.36
2023-05-15T15:44:14.357Z,1.35
2023-05-15T15:45:14.643Z,1.36
2023-05-15T15:46:14.394Z,1.35
2023-05-15T15:47:13.288Z,1.35
2023-05-15T15:48:14.383Z,1.34
2023-05-15T15:49:13.312Z,1.35
2023-05-15T15:50:13.383Z,1.34
2023-05-15T15:51:14.361Z,1.33
2023-05-15T15:52:14.607Z,1.30
2023-05-15T15:53:14.511Z,1.31
2023-05-15T15:54:13.608Z,1.32
2023-05-15T15:55:13.431Z,1.30
2023-05-15T15:56:14.644Z,1.32
2023-05-15T15:57:14.468Z,1.30
2023-05-15T15:58:14.719Z,1.30
2023-05-15T15:59:13.637Z,1.30
2023-05-15T16:00:13.645Z,1.32
2023-05-15T16:01:14.750Z,1.33
2023-05-15T16:02:13.733Z,1.30
2023-05-15T16:03:13.916Z,1.28
2023-05-15T16:04:14.864Z,1.31
2023-05-15T16:05:13.789Z,1.27
2023-05-15T16:06:14.894Z,1.31
2023-05-15T16:07:13.981Z,1.29
2023-05-15T16:08:14.846Z,1.28
2023-05-15T16:09:13.885Z,1.29
2023-05-15T16:10:14.733Z,1.27
2023-05-15T16:11:14.766Z,1.28
2023-05-15T16:12:13.756Z,1.26
2023-05-15T16:13:15.080Z,1.28
2023-05-15T16:14:15.034Z,1.26